createdAt,value
2018-04-27T00:01:16.463Z,7.60
2018-04-27T00:03:43.977Z,7.70
2018-04-27T00:06:11.599Z,7.70
2018-04-27T00:08:39.107Z,7.70
2018-04-27T00:11:06.619Z,7.60
2018-04-27T00:13:34.137Z,7.70
2018-04-27T00:16:01.784Z,7.70
2018-04-27T00:18:29.311Z,7.70
2018-04-27T00:20:56.833Z,7.70
2018-04-27T00:23:25.106Z,7.70
2018-04-27T00:25:53.554Z,7.80
2018-04-27T00:28:21.070Z,7.70
2018-04-27T00:30:48.582Z,7.70
2018-04-27T00:33:16.087Z,7.70
2018-04-27T00:35:43.607Z,7.70
2018-04-27T00:38:11.879Z,7.70
2018-04-27T00:40:40.161Z,7.70
2018-04-27T00:43:08.439Z,7.60
2018-04-27T00:45:36.723Z,7.60
2018-04-27T00:48:05.112Z,7.60
2018-04-27T00:50:32.613Z,7.60
2018-04-27T00:53:12.089Z,7.60
2018-04-27T00:55:39.648Z,7.60
2018-04-27T00:58:07.190Z,7.60
2018-04-27T01:00:34.823Z,7.60
2018-04-27T01:03:02.342Z,7.60
2018-04-27T01:05:29.849Z,7.60
2018-04-27T01:07:57.376Z,7.60
2018-04-27T01:10:24.896Z,7.70
2018-04-27T01:12:52.578Z,7.70
2018-04-27T01:15:20.082Z,7.70
2018-04-27T01:17:47.588Z,7.70
2018-04-27T01:20:15.872Z,7.70
2018-04-27T01:22:43.459Z,7.70
2018-04-27T01:25:10.989Z,7.70
2018-04-27T01:27:38.554Z,7.70
2018-04-27T01:30:06.211Z,7.70
2018-04-27T01:32:33.951Z,7.70
2018-04-27T01:35:02.243Z,7.70
2018-04-27T01:37:29.764Z,7.70
2018-04-27T01:39:57.290Z,7.70
2018-04-27T01:42:24.799Z,7.70
2018-04-27T01:44:53.487Z,7.60
2018-04-27T01:47:21.916Z,7.60
2018-04-27T01:49:49.446Z,7.60
2018-04-27T01:52:17.047Z,7.60
2018-04-27T01:54:44.490Z,7.60
2018-04-27T01:57:12.131Z,7.60
2018-04-27T01:59:39.638Z,7.60
2018-04-27T02:02:07.146Z,7.60
2018-04-27T02:04:34.672Z,7.50
2018-04-27T02:07:02.186Z,7.50
2018-04-27T02:09:30.215Z,7.50
2018-04-27T02:11:57.734Z,7.40
2018-04-27T02:14:25.251Z,7.50
2018-04-27T02:16:53.619Z,7.50
2018-04-27T02:19:21.371Z,7.40
2018-04-27T02:21:49.643Z,7.40
2018-04-27T02:24:17.926Z,7.40
2018-04-27T02:26:46.198Z,7.30
2018-04-27T02:29:14.595Z,7.30
2018-04-27T02:31:42.116Z,7.20
2018-04-27T02:34:09.645Z,7.20
2018-04-27T02:36:37.152Z,7.30
2018-04-27T02:39:04.830Z,7.20
2018-04-27T02:41:32.341Z,7.20
2018-04-27T02:43:59.845Z,7.10
2018-04-27T02:46:27.367Z,7.10
2018-04-27T02:48:56.395Z,7.00
2018-04-27T02:51:23.916Z,7.00
2018-04-27T02:53:51.436Z,7.00
2018-04-27T02:56:18.944Z,6.90
2018-04-27T02:58:47.238Z,6.90
2018-04-27T03:01:15.529Z,6.90
2018-04-27T03:03:43.042Z,6.90
2018-04-27T03:06:10.606Z,6.80
2018-04-27T03:08:38.133Z,6.80
2018-04-27T03:11:05.633Z,6.80
2018-04-27T03:13:33.160Z,6.70
2018-04-27T03:16:00.673Z,6.70
2018-04-27T03:18:28.207Z,6.70
2018-04-27T03:20:56.660Z,6.70
2018-04-27T03:23:24.158Z,6.70
2018-04-27T03:25:51.798Z,6.70
2018-04-27T03:28:19.317Z,6.70
2018-04-27T03:30:46.837Z,6.60
2018-04-27T03:33:14.372Z,6.60
2018-04-27T03:35:41.907Z,6.50
2018-04-27T03:38:09.413Z,6.50
2018-04-27T03:40:37.699Z,6.50
2018-04-27T03:43:05.216Z,6.50
2018-04-27T03:45:33.506Z,6.50
2018-04-27T03:48:01.040Z,6.50
2018-04-27T03:50:28.652Z,6.50
2018-04-27T03:52:56.161Z,6.50
2018-04-27T03:55:23.677Z,6.50
2018-04-27T03:57:51.204Z,6.40
2018-04-27T04:00:30.510Z,6.40
2018-04-27T04:03:09.815Z,6.40
2018-04-27T04:05:37.413Z,6.40
2018-04-27T04:08:04.937Z,6.40
2018-04-27T04:10:32.450Z,6.40
2018-04-27T04:12:59.974Z,6.40
2018-04-27T04:15:27.496Z,6.40
2018-04-27T04:17:55.008Z,6.40
2018-04-27T04:20:22.527Z,6.40
2018-04-27T04:22:50.045Z,6.40
2018-04-27T04:25:18.326Z,6.30
2018-04-27T04:27:46.595Z,6.40
2018-04-27T04:30:14.887Z,6.40
2018-04-27T04:32:42.393Z,6.30
2018-04-27T04:35:09.905Z,6.30
2018-04-27T04:37:37.457Z,6.30
2018-04-27T04:40:04.969Z,6.40
2018-04-27T04:42:32.475Z,6.30
2018-04-27T04:45:00.135Z,6.30
2018-04-27T04:47:27.652Z,6.30
2018-04-27T04:49:55.169Z,6.40
2018-04-27T04:52:22.784Z,6.40
2018-04-27T04:54:50.271Z,6.40
2018-04-27T04:57:17.795Z,6.40
2018-04-27T04:59:46.100Z,6.40
2018-04-27T05:02:13.640Z,6.40
2018-04-27T05:04:41.982Z,6.50
2018-04-27T05:07:09.495Z,6.50
2018-04-27T05:09:37.019Z,6.50
2018-04-27T05:12:04.541Z,6.50
2018-04-27T05:14:32.079Z,6.50
2018-04-27T05:16:59.594Z,6.60
2018-04-27T05:19:27.096Z,6.60
2018-04-27T05:21:54.603Z,6.60
2018-04-27T05:24:22.145Z,6.70
2018-04-27T05:26:49.783Z,6.80
2018-04-27T05:29:18.975Z,6.80
2018-04-27T05:31:47.857Z,6.90
2018-04-27T05:34:18.068Z,6.80
2018-04-27T05:36:48.955Z,6.90
2018-04-27T05:39:18.019Z,6.90
2018-04-27T05:41:45.553Z,7.00
2018-04-27T05:44:13.078Z,7.00
2018-04-27T05:46:40.698Z,7.10
2018-04-27T05:49:08.879Z,7.10
2018-04-27T05:51:36.721Z,7.10
2018-04-27T05:54:04.236Z,7.20
2018-04-27T05:56:32.570Z,7.20
2018-04-27T05:59:00.072Z,7.30
2018-04-27T06:01:27.603Z,7.40
2018-04-27T06:04:07.175Z,7.40
2018-04-27T06:06:34.717Z,7.50
2018-04-27T06:09:03.003Z,7.50
2018-04-27T06:11:32.109Z,7.60
2018-04-27T06:13:59.700Z,7.60
2018-04-27T06:16:27.294Z,7.70
2018-04-27T06:18:54.836Z,7.80
2018-04-27T06:21:22.359Z,7.80
2018-04-27T06:23:50.641Z,8.00
2018-04-27T06:26:18.918Z,8.00
2018-04-27T06:28:49.041Z,8.10
2018-04-27T06:31:17.343Z,8.10
2018-04-27T06:33:44.866Z,8.10
2018-04-27T06:36:12.398Z,8.20
2018-04-27T06:38:39.907Z,8.30
2018-04-27T06:41:07.414Z,8.40
2018-04-27T06:43:34.924Z,8.50
2018-04-27T06:46:02.444Z,8.50
2018-04-27T06:48:29.972Z,8.60
2018-04-27T06:50:58.342Z,8.70
2018-04-27T06:53:25.892Z,8.70
2018-04-27T06:55:53.418Z,8.80
2018-04-27T06:58:20.982Z,8.90
2018-04-27T07:00:49.245Z,9.00
2018-04-27T07:03:17.554Z,9.10
2018-04-27T07:05:45.079Z,9.10
2018-04-27T07:08:12.625Z,9.10
2018-04-27T07:10:40.164Z,9.20
2018-04-27T07:13:07.699Z,9.20
2018-04-27T07:15:35.249Z,9.30
2018-04-27T07:18:03.591Z,9.30
2018-04-27T07:20:31.091Z,9.40
2018-04-27T07:22:58.627Z,9.50
2018-04-27T07:25:26.125Z,9.50
2018-04-27T07:27:53.655Z,9.60
2018-04-27T07:30:21.205Z,9.60
2018-04-27T07:32:48.723Z,9.70
2018-04-27T07:35:17.756Z,9.80
2018-04-27T07:37:45.475Z,9.80
2018-04-27T07:40:13.005Z,9.90
2018-04-27T07:42:40.559Z,9.90
2018-04-27T07:45:08.077Z,10.00
2018-04-27T07:47:35.649Z,10.00
2018-04-27T07:50:03.162Z,10.10
2018-04-27T07:52:30.677Z,10.10
2018-04-27T07:54:58.209Z,10.20
2018-04-27T07:57:26.515Z,10.30
2018-04-27T07:59:54.036Z,10.30
2018-04-27T08:02:21.583Z,10.40
2018-04-27T08:04:49.096Z,10.40
2018-04-27T08:07:16.653Z,10.50
2018-04-27T08:09:44.193Z,10.50
2018-04-27T08:12:11.731Z,10.50
2018-04-27T08:14:39.297Z,10.60
2018-04-27T08:17:07.571Z,10.80
2018-04-27T08:19:35.848Z,10.80
2018-04-27T08:22:04.133Z,10.90
2018-04-27T08:24:32.429Z,11.00
2018-04-27T08:26:59.959Z,10.90
2018-04-27T08:29:27.470Z,10.90
2018-04-27T08:31:54.990Z,11.00
2018-04-27T08:34:22.504Z,11.00
2018-04-27T08:36:50.020Z,11.10
2018-04-27T08:39:17.536Z,11.10
2018-04-27T08:41:45.050Z,11.20
2018-04-27T08:44:12.574Z,11.20
2018-04-27T08:46:40.862Z,11.20
2018-04-27T08:49:08.528Z,11.20
2018-04-27T08:51:36.045Z,11.30
2018-04-27T08:54:03.561Z,11.40
2018-04-27T08:56:31.083Z,11.50
2018-04-27T08:58:59.373Z,11.50
2018-04-27T09:01:26.948Z,11.50
2018-04-27T09:03:54.461Z,11.60
2018-04-27T09:06:22.798Z,11.60
2018-04-27T09:08:51.037Z,11.60
2018-04-27T09:11:19.327Z,11.70
2018-04-27T09:13:46.875Z,11.70
2018-04-27T09:16:14.452Z,11.70
2018-04-27T09:18:41.967Z,11.80
2018-04-27T09:21:09.517Z,11.80
2018-04-27T09:23:37.143Z,11.90
2018-04-27T09:26:04.656Z,11.90
2018-04-27T09:28:32.966Z,12.00
2018-04-27T09:31:00.531Z,11.90
2018-04-27T09:33:28.099Z,12.00
2018-04-27T09:35:55.635Z,12.00
2018-04-27T09:38:23.168Z,12.20
2018-04-27T09:40:51.453Z,12.20
2018-04-27T09:43:19.004Z,12.20
2018-04-27T09:45:46.691Z,12.30
2018-04-27T09:48:14.207Z,12.20
2018-04-27T09:50:42.068Z,12.40
2018-04-27T09:53:09.546Z,12.30
2018-04-27T09:55:37.855Z,12.50
2018-04-27T09:58:05.377Z,12.40
2018-04-27T10:00:32.885Z,12.50
2018-04-27T10:03:00.439Z,12.50
2018-04-27T10:05:27.988Z,12.50
2018-04-27T10:07:55.501Z,12.50
2018-04-27T10:10:23.791Z,12.60
2018-04-27T10:12:52.101Z,12.60
2018-04-27T10:15:19.643Z,12.60
2018-04-27T10:17:47.159Z,12.60
2018-04-27T10:20:14.698Z,12.70
2018-04-27T10:22:42.263Z,12.90
2018-04-27T10:25:09.835Z,13.10
2018-04-27T10:27:37.535Z,13.20
2018-04-27T10:30:05.238Z,13.30
2018-04-27T10:32:32.846Z,13.30
2018-04-27T10:35:00.466Z,13.40
2018-04-27T10:37:28.000Z,13.30
2018-04-27T10:39:55.547Z,13.30
2018-04-27T10:42:23.071Z,13.30
2018-04-27T10:44:51.381Z,13.30
2018-04-27T10:47:18.915Z,13.30
2018-04-27T10:49:47.209Z,13.50
2018-04-27T10:52:14.749Z,13.50
2018-04-27T10:54:42.273Z,13.60
2018-04-27T10:57:10.547Z,13.70
2018-04-27T10:59:38.546Z,13.70
2018-04-27T11:02:06.070Z,13.80
2018-04-27T11:04:33.604Z,13.90
2018-04-27T11:07:01.161Z,13.90
2018-04-27T11:09:28.738Z,14.00
2018-04-27T11:11:56.258Z,14.00
2018-04-27T11:14:23.773Z,14.10
2018-04-27T11:16:51.551Z,14.10
2018-04-27T11:19:18.856Z,14.20
2018-04-27T11:21:46.389Z,14.10
2018-04-27T11:24:13.931Z,14.10
2018-04-27T11:26:41.442Z,14.30
2018-04-27T11:29:09.809Z,14.50
2018-04-27T11:31:37.337Z,14.60
2018-04-27T11:34:05.746Z,14.50
2018-04-27T11:36:33.269Z,14.50
2018-04-27T11:39:00.789Z,14.50
2018-04-27T11:41:28.303Z,14.50
2018-04-27T11:43:55.815Z,14.50
2018-04-27T11:46:23.356Z,14.70
2018-04-27T11:48:50.903Z,14.70
2018-04-27T11:51:18.433Z,14.60
2018-04-27T11:53:45.955Z,14.70
2018-04-27T11:56:13.490Z,14.70
2018-04-27T11:58:41.018Z,15.00
2018-04-27T12:01:08.596Z,15.00
2018-04-27T12:03:36.151Z,15.00
2018-04-27T12:06:03.668Z,15.00
2018-04-27T12:08:31.967Z,15.40
2018-04-27T12:10:59.550Z,15.40
2018-04-27T12:13:27.097Z,15.30
2018-04-27T12:15:54.635Z,15.50
2018-04-27T12:18:22.166Z,15.60
2018-04-27T12:20:49.694Z,15.60
2018-04-27T12:23:17.217Z,15.80
2018-04-27T12:25:44.747Z,15.90
2018-04-27T12:28:13.058Z,15.80
2018-04-27T12:30:40.600Z,15.80
2018-04-27T12:33:08.139Z,15.70
2018-04-27T12:35:36.421Z,15.90
2018-04-27T12:38:05.423Z,16.00
2018-04-27T12:40:32.975Z,16.00
2018-04-27T12:43:01.282Z,16.00
2018-04-27T12:45:28.783Z,16.00
2018-04-27T12:47:56.440Z,16.00
2018-04-27T12:50:23.969Z,15.90
2018-04-27T12:52:51.517Z,15.90
2018-04-27T12:55:19.040Z,16.10
2018-04-27T12:57:47.436Z,16.20
2018-04-27T13:00:14.963Z,16.20
2018-04-27T13:02:42.491Z,16.30
2018-04-27T13:05:09.995Z,16.30
2018-04-27T13:07:37.535Z,16.20
2018-04-27T13:10:05.065Z,16.30
2018-04-27T13:12:32.667Z,16.40
2018-04-27T13:15:00.222Z,16.20
2018-04-27T13:17:28.075Z,16.30
2018-04-27T13:19:56.415Z,16.40
2018-04-27T13:22:23.935Z,16.50
2018-04-27T13:24:52.250Z,16.90
2018-04-27T13:27:19.796Z,16.90
2018-04-27T13:29:47.333Z,16.70
2018-04-27T13:32:15.817Z,17.80
2018-04-27T13:34:44.100Z,18.40
2018-04-27T13:37:11.639Z,18.40
2018-04-27T13:39:39.981Z,19.90
2018-04-27T13:42:07.523Z,19.80
2018-04-27T13:44:35.040Z,20.10
2018-04-27T13:47:02.581Z,20.50
2018-04-27T13:49:30.201Z,20.40
2018-04-27T13:51:57.819Z,21.00
2018-04-27T13:54:25.321Z,20.60
2018-04-27T13:56:52.860Z,19.70
2018-04-27T13:59:20.505Z,19.20
2018-04-27T14:01:49.769Z,18.90
2018-04-27T14:04:17.323Z,18.90
2018-04-27T14:06:44.849Z,18.80
2018-04-27T14:09:13.173Z,18.70
2018-04-27T14:11:40.699Z,18.30
2018-04-27T14:14:08.220Z,17.90
2018-04-27T14:16:35.891Z,17.60
2018-04-27T14:19:04.347Z,17.30
2018-04-27T14:21:31.957Z,17.40
2018-04-27T14:23:59.481Z,17.50
2018-04-27T14:26:27.012Z,17.30
2018-04-27T14:28:54.533Z,17.10
2018-04-27T14:31:22.063Z,17.20
2018-04-27T14:33:49.672Z,17.30
2018-04-27T14:36:17.163Z,17.20
2018-04-27T14:38:44.689Z,16.90
2018-04-27T14:41:12.223Z,16.60
2018-04-27T14:43:39.739Z,16.60
2018-04-27T14:46:07.267Z,16.40
2018-04-27T14:48:34.806Z,16.40
2018-04-27T14:51:02.336Z,16.40
2018-04-27T14:53:29.862Z,16.20
2018-04-27T14:55:58.179Z,16.10
2018-04-27T14:58:25.730Z,16.10
2018-04-27T15:00:53.298Z,16.00
2018-04-27T15:03:20.829Z,16.00
2018-04-27T15:05:48.585Z,15.90
2018-04-27T15:08:16.876Z,15.80
2018-04-27T15:10:45.175Z,15.80
2018-04-27T15:13:12.697Z,15.80
2018-04-27T15:15:41.328Z,15.70
2018-04-27T15:18:08.938Z,15.70
2018-04-27T15:20:37.356Z,15.60
2018-04-27T15:23:04.883Z,15.50
2018-04-27T15:25:33.168Z,15.40
2018-04-27T15:28:00.939Z,15.40
2018-04-27T15:30:28.491Z,15.40
2018-04-27T15:32:57.076Z,15.20
2018-04-27T15:35:24.599Z,15.20
2018-04-27T15:37:52.134Z,15.20
2018-04-27T15:40:19.764Z,15.20
2018-04-27T15:42:47.281Z,15.10
2018-04-27T15:45:14.800Z,15.10
2018-04-27T15:47:42.320Z,15.00
2018-04-27T15:50:10.724Z,15.00
2018-04-27T15:52:38.278Z,15.00
2018-04-27T15:55:05.812Z,15.20
2018-04-27T15:57:33.567Z,15.50
2018-04-27T16:00:01.863Z,16.00
2018-04-27T16:02:29.446Z,16.00
2018-04-27T16:04:56.991Z,16.10
2018-04-27T16:07:25.228Z,16.20
2018-04-27T16:09:52.742Z,16.20
2018-04-27T16:12:20.269Z,16.30
2018-04-27T16:14:47.817Z,16.50
2018-04-27T16:17:16.108Z,16.80
2018-04-27T16:19:43.675Z,16.80
2018-04-27T16:22:11.195Z,17.30
2018-04-27T16:24:38.787Z,17.70
2018-04-27T16:27:06.294Z,17.90
2018-04-27T16:29:33.828Z,18.00
2018-04-27T16:32:01.342Z,17.80
2018-04-27T16:34:29.708Z,17.30
2018-04-27T16:36:57.210Z,17.20
2018-04-27T16:39:24.716Z,16.90
2018-04-27T16:41:52.319Z,16.70
2018-04-27T16:44:20.576Z,16.50
2018-04-27T16:46:49.683Z,16.30
2018-04-27T16:49:17.978Z,16.20
2018-04-27T16:51:45.500Z,16.20
2018-04-27T16:54:13.042Z,16.20
2018-04-27T16:56:40.554Z,16.10
2018-04-27T16:59:08.157Z,16.10
2018-04-27T17:01:35.684Z,16.00
2018-04-27T17:04:03.240Z,16.00
2018-04-27T17:06:30.767Z,15.90
2018-04-27T17:08:59.062Z,15.90
2018-04-27T17:11:26.606Z,15.90
2018-04-27T17:13:54.122Z,16.00
2018-04-27T17:16:21.675Z,15.90
2018-04-27T17:18:49.241Z,15.90
2018-04-27T17:21:17.600Z,15.80
2018-04-27T17:23:45.338Z,15.80
2018-04-27T17:26:12.860Z,15.90
2018-04-27T17:28:41.175Z,15.90
2018-04-27T17:31:08.713Z,15.90
2018-04-27T17:33:36.242Z,15.80
2018-04-27T17:36:05.258Z,15.60
2018-04-27T17:38:32.788Z,15.60
2018-04-27T17:41:00.356Z,15.60
2018-04-27T17:43:27.894Z,15.60
2018-04-27T17:45:55.441Z,15.50
2018-04-27T17:48:23.019Z,15.50
2018-04-27T17:50:50.548Z,15.40
2018-04-27T17:53:18.074Z,15.40
2018-04-27T17:55:45.620Z,15.40
2018-04-27T17:58:13.168Z,15.40
2018-04-27T18:00:40.692Z,15.30
2018-04-27T18:03:08.418Z,15.30
2018-04-27T18:05:35.967Z,15.20
2018-04-27T18:08:04.257Z,15.00
2018-04-27T18:10:32.092Z,15.00
2018-04-27T18:13:00.463Z,14.80
2018-04-27T18:15:28.112Z,14.80
2018-04-27T18:17:57.024Z,14.70
2018-04-27T18:20:25.324Z,14.70
2018-04-27T18:22:52.946Z,14.60
2018-04-27T18:25:20.547Z,14.60
2018-04-27T18:27:48.877Z,14.50
2018-04-27T18:30:17.199Z,14.40
2018-04-27T18:32:44.849Z,14.40
2018-04-27T18:35:12.411Z,14.30
2018-04-27T18:37:39.970Z,14.30
2018-04-27T18:40:07.517Z,14.20
2018-04-27T18:42:35.835Z,14.10
2018-04-27T18:45:03.384Z,14.00
2018-04-27T18:47:30.936Z,14.00
2018-04-27T18:49:58.504Z,13.90
2018-04-27T18:52:26.039Z,13.80
2018-04-27T18:54:54.416Z,13.80
2018-04-27T18:57:25.672Z,13.70
2018-04-27T18:59:53.238Z,13.70
2018-04-27T19:02:20.857Z,13.70
2018-04-27T19:04:48.595Z,13.70
2018-04-27T19:07:16.152Z,13.60
2018-04-27T19:09:43.739Z,13.50
2018-04-27T19:12:11.292Z,13.50
2018-04-27T19:14:38.861Z,13.50
2018-04-27T19:17:06.519Z,13.40
2018-04-27T19:19:34.132Z,13.40
2018-04-27T19:22:01.963Z,13.40
2018-04-27T19:24:29.526Z,13.30
2018-04-27T19:26:58.811Z,13.30
2018-04-27T19:29:27.284Z,13.30
2018-04-27T19:31:55.666Z,13.20
2018-04-27T19:34:23.291Z,13.20
2018-04-27T19:36:51.464Z,13.20
2018-04-27T19:39:19.036Z,13.10
2018-04-27T19:41:46.598Z,13.10
2018-04-27T19:44:15.015Z,13.10
2018-04-27T19:46:42.551Z,13.10
2018-04-27T19:49:10.112Z,13.10
2018-04-27T19:51:37.685Z,13.00
2018-04-27T19:54:06.694Z,12.90
2018-04-27T19:56:34.237Z,12.90
2018-04-27T19:59:02.611Z,12.90
2018-04-27T20:01:30.141Z,12.90
2018-04-27T20:03:57.689Z,12.80
2018-04-27T20:06:25.248Z,12.90
2018-04-27T20:08:52.832Z,12.80
2018-04-27T20:11:20.414Z,12.80
2018-04-27T20:13:48.884Z,12.80
2018-04-27T20:19:17.232Z,12.70
2018-04-27T20:21:44.786Z,12.70
2018-04-27T20:24:12.355Z,12.60
2018-04-27T20:26:39.982Z,12.60
2018-04-27T20:29:07.554Z,12.60
2018-04-27T20:31:35.112Z,12.60
2018-04-27T20:34:02.827Z,12.50
2018-04-27T20:36:30.363Z,12.50
2018-04-27T20:38:57.918Z,12.50
2018-04-27T20:41:25.455Z,12.50
2018-04-27T20:43:53.837Z,12.50
2018-04-27T20:46:21.645Z,12.50
2018-04-27T20:48:51.834Z,12.50
2018-04-27T20:51:20.147Z,12.40
2018-04-27T20:54:04.245Z,12.40
2018-04-27T20:56:41.687Z,12.40
2018-04-27T20:59:09.289Z,12.40
2018-04-27T21:01:37.576Z,12.40
2018-04-27T21:04:05.110Z,12.30
2018-04-27T21:06:32.636Z,12.40
2018-04-27T21:09:00.160Z,12.30
2018-04-27T21:11:27.742Z,12.30
2018-04-27T21:13:55.294Z,12.30
2018-04-27T21:16:22.812Z,12.40
2018-04-27T21:18:50.372Z,12.30
2018-04-27T21:21:17.922Z,12.30
2018-04-27T21:23:45.423Z,12.20
2018-04-27T21:26:19.790Z,12.20
2018-04-27T21:28:47.328Z,12.10
2018-04-27T21:31:14.869Z,12.00
2018-04-27T21:33:57.284Z,12.00
2018-04-27T21:36:30.176Z,12.00
2018-04-27T21:39:26.110Z,11.90
2018-04-27T21:42:12.840Z,11.90
2018-04-27T21:44:41.214Z,11.90
2018-04-27T21:50:16.371Z,11.80
2018-04-27T21:52:49.312Z,11.80
2018-04-27T21:55:16.829Z,11.80
2018-04-27T21:57:55.930Z,11.70
2018-04-27T22:00:25.093Z,11.60
2018-04-27T22:03:04.486Z,11.60
2018-04-27T22:05:31.997Z,11.60
2018-04-27T22:07:59.525Z,11.50
2018-04-27T22:10:27.246Z,11.50
2018-04-27T22:12:57.714Z,11.50
2018-04-27T22:15:25.234Z,11.40
2018-04-27T22:17:52.753Z,11.40
2018-04-27T22:20:22.049Z,11.40
2018-04-27T22:22:50.486Z,11.40
2018-04-27T22:25:29.208Z,11.40
2018-04-27T22:27:59.122Z,11.30
2018-04-27T22:30:28.278Z,11.30
2018-04-27T22:32:55.794Z,11.30
2018-04-27T22:35:34.080Z,11.30
2018-04-27T22:38:01.596Z,11.30
2018-04-27T22:40:48.644Z,11.30
2018-04-27T22:43:18.752Z,11.30
2018-04-27T22:46:01.914Z,11.30
2018-04-27T22:48:31.229Z,11.30
2018-04-27T22:51:00.158Z,11.30
2018-04-27T22:53:32.692Z,11.30
2018-04-27T22:56:00.213Z,11.30
2018-04-27T22:58:28.507Z,11.40
2018-04-27T23:00:59.548Z,11.30
2018-04-27T23:03:27.866Z,11.40
2018-04-27T23:05:55.399Z,11.40
2018-04-27T23:08:22.921Z,11.40
2018-04-27T23:11:17.516Z,11.40
2018-04-27T23:13:46.566Z,11.40
2018-04-27T23:16:14.894Z,11.40
2018-04-27T23:18:43.180Z,11.30
2018-04-27T23:21:14.338Z,11.30
2018-04-27T23:23:41.878Z,11.30
2018-04-27T23:26:09.426Z,11.30
2018-04-27T23:28:37.708Z,11.30
2018-04-27T23:31:05.225Z,11.30
2018-04-27T23:33:33.549Z,11.30
2018-04-27T23:36:01.087Z,11.30
2018-04-27T23:38:28.610Z,11.30
2018-04-27T23:40:56.204Z,11.30
2018-04-27T23:43:25.171Z,11.30
2018-04-27T23:45:53.557Z,11.30
2018-04-27T23:48:21.112Z,11.30
2018-04-27T23:50:51.316Z,11.30
2018-04-27T23:53:18.877Z,11.30
2018-04-27T23:55:46.425Z,11.40
2018-04-27T23:58:16.752Z,11.40
